createdAt,value
2018-07-16T00:00:28.988Z,16.10
2018-07-16T00:02:57.710Z,15.70
2018-07-16T00:05:25.937Z,16.47
2018-07-16T00:07:55.611Z,13.97
2018-07-16T00:10:24.423Z,14.70
2018-07-16T00:12:53.060Z,14.10
2018-07-16T00:15:21.435Z,13.70
2018-07-16T00:17:49.722Z,15.20
2018-07-16T00:20:18.468Z,13.97
2018-07-16T00:22:47.326Z,14.50
2018-07-16T00:25:15.980Z,14.97
2018-07-16T00:27:45.301Z,14.57
2018-07-16T00:30:14.158Z,14.13
2018-07-16T00:32:42.472Z,14.33
2018-07-16T00:35:11.593Z,15.50
2018-07-16T00:37:40.264Z,13.67
2018-07-16T00:40:09.519Z,37.63
2018-07-16T00:42:38.135Z,11.83
2018-07-16T00:45:06.868Z,13.67
2018-07-16T00:47:35.584Z,14.50
2018-07-16T00:50:04.018Z,14.30
2018-07-16T00:52:33.631Z,15.60
2018-07-16T00:55:02.002Z,14.40
2018-07-16T00:57:30.716Z,43.33
2018-07-16T00:59:59.414Z,14.63
2018-07-16T01:02:28.499Z,13.67
2018-07-16T01:04:57.256Z,15.03
2018-07-16T01:07:25.490Z,15.60
2018-07-16T01:09:53.991Z,13.27
2018-07-16T01:12:22.319Z,15.73
2018-07-16T01:14:50.990Z,16.00
2018-07-16T01:17:20.039Z,17.13
2018-07-16T01:19:48.843Z,16.60
2018-07-16T01:22:17.682Z,17.00
2018-07-16T01:24:45.887Z,17.27
2018-07-16T01:27:14.488Z,14.73
2018-07-16T01:29:43.130Z,17.50
2018-07-16T01:32:12.102Z,15.90
2018-07-16T01:34:40.502Z,15.17
2018-07-16T01:37:09.642Z,39.80
2018-07-16T01:39:37.972Z,1.67
2018-07-16T01:42:06.561Z,1.30
2018-07-16T01:44:35.138Z,2.10
2018-07-16T01:47:03.880Z,0.80
2018-07-16T01:49:32.662Z,0.80
2018-07-16T01:52:01.242Z,0.80
2018-07-16T01:54:29.897Z,2.30
2018-07-16T01:56:58.623Z,0.70
2018-07-16T01:59:27.411Z,0.80
2018-07-16T02:01:56.070Z,0.90
2018-07-16T02:04:24.388Z,1.30
2018-07-16T02:06:53.036Z,1.37
2018-07-16T02:09:22.229Z,0.73
2018-07-16T02:11:50.761Z,0.80
2018-07-16T02:14:19.781Z,0.90
2018-07-16T02:16:48.663Z,0.80
2018-07-16T02:19:17.499Z,0.90
2018-07-16T02:21:45.768Z,0.97
2018-07-16T02:24:14.697Z,0.80
2018-07-16T02:26:43.691Z,0.80
2018-07-16T02:29:12.315Z,1.10
2018-07-16T02:31:40.986Z,1.30
2018-07-16T02:34:09.389Z,2.40
2018-07-16T02:36:38.027Z,0.80
2018-07-16T02:39:06.522Z,0.90
2018-07-16T02:41:34.903Z,0.80
2018-07-16T02:44:04.081Z,0.90
2018-07-16T02:46:32.726Z,0.87
2018-07-16T02:49:01.105Z,0.90
2018-07-16T02:51:29.831Z,0.90
2018-07-16T02:53:58.629Z,0.90
2018-07-16T02:56:27.436Z,0.90
2018-07-16T02:58:57.540Z,0.77
2018-07-16T03:01:26.166Z,0.80
2018-07-16T03:03:54.823Z,0.80
2018-07-16T03:06:23.553Z,1.00
2018-07-16T03:08:52.399Z,0.83
2018-07-16T03:11:21.085Z,0.80
2018-07-16T03:13:49.422Z,0.80
2018-07-16T03:16:18.544Z,0.70
2018-07-16T03:18:48.023Z,1.13
2018-07-16T03:21:17.514Z,0.80
2018-07-16T03:23:46.306Z,0.90
2018-07-16T03:26:41.292Z,0.80
2018-07-16T03:29:09.896Z,1.27
2018-07-16T03:31:38.963Z,0.80
2018-07-16T03:34:07.239Z,0.80
2018-07-16T03:36:36.314Z,0.90
2018-07-16T03:39:05.993Z,0.80
2018-07-16T03:41:34.868Z,0.90
2018-07-16T03:44:04.219Z,0.80
2018-07-16T03:46:33.166Z,1.30
2018-07-16T03:49:03.973Z,1.77
2018-07-16T03:51:42.395Z,0.80
2018-07-16T03:54:11.312Z,0.80
2018-07-16T03:59:50.065Z,0.80
2018-07-16T04:02:19.269Z,1.80
2018-07-16T04:04:47.532Z,0.80
2018-07-16T04:07:21.355Z,0.90
2018-07-16T04:09:50.412Z,0.83
2018-07-16T04:12:19.400Z,0.70
2018-07-16T04:14:48.324Z,0.80
2018-07-16T04:17:16.982Z,0.83
2018-07-16T04:19:45.226Z,0.70
2018-07-16T04:22:13.955Z,1.57
2018-07-16T04:24:42.360Z,0.73
2018-07-16T04:27:11.048Z,0.90
2018-07-16T04:29:39.706Z,0.83
2018-07-16T04:32:14.547Z,0.70
2018-07-16T04:34:42.882Z,0.70
2018-07-16T04:37:11.292Z,0.77
2018-07-16T04:39:40.054Z,0.87
2018-07-16T04:42:08.408Z,0.90
2018-07-16T04:44:36.957Z,0.73
2018-07-16T04:47:05.711Z,1.00
2018-07-16T04:49:34.051Z,1.30
2018-07-16T04:52:03.065Z,1.23
2018-07-16T04:54:31.336Z,0.73
2018-07-16T04:57:12.317Z,1.30
2018-07-16T04:59:41.081Z,0.87
2018-07-16T05:02:09.679Z,1.07
2018-07-16T05:04:38.417Z,2.90
2018-07-16T05:07:07.069Z,0.80
2018-07-16T05:09:35.740Z,1.50
2018-07-16T05:12:04.504Z,1.80
2018-07-16T05:14:33.501Z,0.70
2018-07-16T05:17:02.224Z,1.50
2018-07-16T05:19:30.908Z,1.10
2018-07-16T05:21:59.549Z,0.80
2018-07-16T05:24:28.503Z,1.10
2018-07-16T05:26:57.094Z,0.80
2018-07-16T05:29:25.726Z,2.90
2018-07-16T05:31:54.514Z,0.80
2018-07-16T05:34:23.111Z,0.70
2018-07-16T05:36:51.620Z,0.70
2018-07-16T05:39:20.419Z,1.30
2018-07-16T05:41:49.756Z,1.40
2018-07-16T05:44:18.472Z,0.80
2018-07-16T05:46:47.100Z,1.33
2018-07-16T05:49:15.874Z,0.80
2018-07-16T05:51:44.640Z,1.00
2018-07-16T05:54:13.254Z,0.80
2018-07-16T05:56:41.956Z,0.80
2018-07-16T05:59:10.483Z,1.10
2018-07-16T06:01:39.082Z,0.97
2018-07-16T06:04:07.795Z,4.30
2018-07-16T06:06:36.373Z,22.73
2018-07-16T06:10:13.166Z,1.33
2018-07-16T06:12:41.973Z,1.00
2018-07-16T06:15:10.575Z,11.53
2018-07-16T06:17:39.483Z,20.63
2018-07-16T06:20:12.608Z,21.20
2018-07-16T06:22:41.337Z,21.80
2018-07-16T06:25:10.309Z,22.47
2018-07-16T06:27:39.482Z,21.03
2018-07-16T06:30:08.226Z,20.27
2018-07-16T06:32:36.938Z,20.80
2018-07-16T06:35:06.652Z,20.33
2018-07-16T06:37:35.377Z,21.60
2018-07-16T06:40:04.159Z,19.63
2018-07-16T06:42:32.998Z,21.50
2018-07-16T06:45:01.260Z,19.77
2018-07-16T06:47:29.876Z,20.57
2018-07-16T06:49:58.586Z,20.80
2018-07-16T06:52:27.377Z,19.70
2018-07-16T06:54:55.930Z,18.97
2018-07-16T06:57:24.671Z,19.67
2018-07-16T06:59:53.545Z,20.30
2018-07-16T07:02:21.944Z,18.00
2018-07-16T07:04:50.219Z,20.40
2018-07-16T07:07:18.846Z,20.00
2018-07-16T07:09:47.609Z,18.20
2018-07-16T07:12:16.334Z,18.87
2018-07-16T07:14:44.962Z,19.23
2018-07-16T07:17:13.723Z,18.93
2018-07-16T07:19:42.467Z,18.80
2018-07-16T07:22:10.876Z,18.87
2018-07-16T07:24:40.392Z,19.30
2018-07-16T07:27:17.111Z,19.00
2018-07-16T07:29:46.195Z,18.93
2018-07-16T07:32:15.717Z,16.30
2018-07-16T07:34:44.339Z,17.67
2018-07-16T07:37:13.208Z,15.40
2018-07-16T07:39:41.532Z,16.57
2018-07-16T07:42:10.389Z,15.80
2018-07-16T07:44:39.053Z,15.60
2018-07-16T07:47:07.860Z,16.17
2018-07-16T07:49:37.044Z,15.27
2018-07-16T07:52:06.749Z,15.70
2018-07-16T07:54:35.661Z,16.40
2018-07-16T07:57:04.007Z,12.87
2018-07-16T07:59:33.095Z,14.30
2018-07-16T08:02:01.804Z,13.50
2018-07-16T08:04:31.259Z,14.87
2018-07-16T08:07:06.555Z,15.40
2018-07-16T08:09:35.435Z,15.13
2018-07-16T08:12:07.592Z,14.40
2018-07-16T08:14:36.478Z,14.40
2018-07-16T08:17:05.467Z,13.93
2018-07-16T08:19:34.311Z,11.80
2018-07-16T08:22:03.838Z,12.80
2018-07-16T08:25:15.183Z,13.83
2018-07-16T08:28:15.320Z,14.17
2018-07-16T08:30:44.802Z,16.40
2018-07-16T08:33:13.718Z,13.80
2018-07-16T08:35:42.522Z,13.57
2018-07-16T08:38:11.267Z,13.80
2018-07-16T08:40:40.054Z,14.40
2018-07-16T08:43:08.730Z,14.30
2018-07-16T08:45:37.054Z,14.10
2018-07-16T08:48:09.954Z,13.90
2018-07-16T08:50:38.899Z,14.70
2018-07-16T08:53:07.931Z,14.90
2018-07-16T08:55:45.889Z,15.30
2018-07-16T08:58:14.521Z,14.60
2018-07-16T09:00:44.054Z,14.10
2018-07-16T09:03:20.474Z,14.97
2018-07-16T09:05:53.825Z,15.10
2018-07-16T09:08:22.598Z,17.27
2018-07-16T09:10:51.573Z,17.93
2018-07-16T09:13:20.205Z,18.27
2018-07-16T09:16:01.417Z,17.80
2018-07-16T09:18:30.354Z,17.77
2018-07-16T09:21:07.702Z,15.57
2018-07-16T09:23:39.963Z,16.03
2018-07-16T09:26:16.707Z,15.17
2018-07-16T09:28:54.252Z,16.87
2018-07-16T09:31:23.245Z,17.73
2018-07-16T09:33:51.877Z,16.70
2018-07-16T09:36:20.610Z,14.70
2018-07-16T09:38:49.376Z,16.70
2018-07-16T09:41:18.711Z,15.40
2018-07-16T09:43:47.552Z,15.93
2018-07-16T09:46:16.230Z,15.20
2018-07-16T09:48:45.180Z,14.27
2018-07-16T09:51:13.847Z,14.67
2018-07-16T09:53:42.716Z,14.50
2018-07-16T09:56:11.753Z,11.50
2018-07-16T09:58:40.921Z,12.33
2018-07-16T10:01:14.970Z,12.60
2018-07-16T10:03:43.810Z,10.87
2018-07-16T10:06:12.945Z,9.23
2018-07-16T10:08:47.691Z,11.07
2018-07-16T10:11:16.447Z,11.67
2018-07-16T10:13:45.064Z,10.20
2018-07-16T10:16:15.577Z,10.37
2018-07-16T10:19:07.969Z,10.20
2018-07-16T10:21:38.393Z,10.63
2018-07-16T10:24:07.411Z,9.57
2018-07-16T10:26:45.869Z,9.77
2018-07-16T10:29:22.036Z,8.20
2018-07-16T10:31:53.918Z,7.87
2018-07-16T10:34:23.098Z,9.90
2018-07-16T10:36:59.456Z,7.73
2018-07-16T10:39:36.685Z,8.40
2018-07-16T10:42:04.970Z,8.33
2018-07-16T10:44:33.388Z,7.80
2018-07-16T10:47:02.247Z,7.83
2018-07-16T10:49:31.405Z,8.40
2018-07-16T10:52:00.149Z,8.23
2018-07-16T10:54:28.521Z,9.27
2018-07-16T10:57:03.355Z,7.30
2018-07-16T10:59:32.124Z,7.57
2018-07-16T11:02:14.774Z,6.70
2018-07-16T11:04:43.680Z,8.50
2018-07-16T11:07:12.394Z,8.90
2018-07-16T11:09:54.790Z,9.57
2018-07-16T11:12:24.266Z,7.83
2018-07-16T11:14:53.108Z,7.87
2018-07-16T11:17:21.852Z,6.83
2018-07-16T11:19:50.847Z,8.10
2018-07-16T11:22:20.037Z,6.47
2018-07-16T11:24:48.774Z,7.00
2018-07-16T11:27:17.997Z,7.60
2018-07-16T11:29:46.579Z,7.60
2018-07-16T11:32:15.281Z,6.63
2018-07-16T11:34:44.096Z,8.43
2018-07-16T11:37:12.710Z,6.50
2018-07-16T11:39:41.619Z,5.70
2018-07-16T11:42:10.116Z,6.17
2018-07-16T11:44:39.257Z,5.10
2018-07-16T11:47:08.124Z,7.70
2018-07-16T11:49:37.059Z,6.50
2018-07-16T11:52:06.130Z,5.50
2018-07-16T11:54:38.361Z,6.53
2018-07-16T11:57:07.871Z,6.10
2018-07-16T11:59:36.574Z,5.47
2018-07-16T12:02:28.484Z,5.90
2018-07-16T12:04:57.202Z,7.07
2018-07-16T12:07:26.278Z,5.87
2018-07-16T12:09:55.471Z,5.97
2018-07-16T12:12:25.910Z,5.70
2018-07-16T12:14:54.743Z,4.83
2018-07-16T12:17:23.556Z,4.00
2018-07-16T12:19:52.401Z,4.57
2018-07-16T12:22:20.634Z,4.70
2018-07-16T12:24:49.629Z,3.40
2018-07-16T12:27:18.051Z,5.27
2018-07-16T12:29:46.551Z,4.53
2018-07-16T12:35:20.463Z,4.90
2018-07-16T12:37:49.979Z,6.10
2018-07-16T12:40:27.054Z,5.20
2018-07-16T12:42:57.214Z,4.93
2018-07-16T12:45:26.024Z,4.70
2018-07-16T12:47:54.752Z,4.83
2018-07-16T12:50:23.537Z,5.00
2018-07-16T12:52:52.386Z,4.80
2018-07-16T12:55:26.985Z,4.97
2018-07-16T12:57:55.626Z,5.03
2018-07-16T13:00:24.351Z,3.77
2018-07-16T13:02:53.403Z,4.10
2018-07-16T13:05:21.680Z,4.10
2018-07-16T13:07:50.348Z,4.87
2018-07-16T13:10:19.533Z,4.43
2018-07-16T13:12:48.376Z,4.10
2018-07-16T13:15:17.036Z,3.87
2018-07-16T13:17:45.241Z,4.37
2018-07-16T13:20:14.068Z,4.20
2018-07-16T13:22:42.339Z,4.60
2018-07-16T13:25:10.631Z,4.60
2018-07-16T13:27:38.903Z,3.80
2018-07-16T13:30:11.067Z,4.40
2018-07-16T13:32:39.630Z,5.17
2018-07-16T13:35:08.121Z,4.70
2018-07-16T13:37:36.636Z,4.80
2018-07-16T13:40:04.974Z,4.60
2018-07-16T13:42:33.810Z,4.30
2018-07-16T13:45:02.139Z,4.57
2018-07-16T13:47:41.876Z,3.90
2018-07-16T13:50:19.643Z,4.90
2018-07-16T13:52:49.311Z,4.00
2018-07-16T13:55:24.205Z,3.83
2018-07-16T13:57:55.402Z,4.90
2018-07-16T14:00:24.376Z,4.93
2018-07-16T14:03:03.337Z,4.47
2018-07-16T14:05:45.852Z,4.93
2018-07-16T14:08:14.762Z,5.60
2018-07-16T14:10:48.507Z,4.60
2018-07-16T14:13:18.388Z,4.20
2018-07-16T14:15:47.010Z,5.30
2018-07-16T14:18:15.918Z,4.37
2018-07-16T14:20:44.386Z,4.80
2018-07-16T14:23:13.517Z,4.80
2018-07-16T14:25:53.278Z,4.23
2018-07-16T14:28:23.098Z,5.13
2018-07-16T14:30:51.703Z,4.50
2018-07-16T14:33:23.903Z,4.57
2018-07-16T14:35:52.925Z,4.40
2018-07-16T14:38:22.227Z,4.80
2018-07-16T14:40:51.283Z,4.63
2018-07-16T14:43:19.949Z,4.60
2018-07-16T14:45:48.700Z,4.50
2018-07-16T14:48:17.077Z,4.77
2018-07-16T14:50:45.876Z,3.87
2018-07-16T14:53:15.153Z,4.17
2018-07-16T14:55:44.055Z,4.70
2018-07-16T14:58:12.939Z,4.03
2018-07-16T15:00:42.706Z,3.83
2018-07-16T15:03:11.406Z,4.77
2018-07-16T15:05:40.506Z,4.37
2018-07-16T15:08:15.213Z,3.67
2018-07-16T15:10:45.320Z,4.27
2018-07-16T15:13:13.880Z,4.27
2018-07-16T15:15:42.148Z,4.03
2018-07-16T15:18:10.660Z,3.60
2018-07-16T15:20:42.587Z,4.63
2018-07-16T15:23:11.714Z,3.33
2018-07-16T15:28:29.429Z,4.60
2018-07-16T15:30:58.705Z,4.17
2018-07-16T15:33:27.678Z,3.73
2018-07-16T15:36:03.192Z,4.00
2018-07-16T15:38:32.303Z,3.70
2018-07-16T15:41:20.039Z,3.90
2018-07-16T15:43:50.775Z,4.50
2018-07-16T15:46:25.525Z,4.50
2018-07-16T15:49:02.355Z,4.40
2018-07-16T15:51:40.909Z,4.83
2018-07-16T15:54:14.545Z,4.27
2018-07-16T15:56:44.636Z,4.17
2018-07-16T15:59:32.252Z,4.50
2018-07-16T16:02:16.707Z,3.13
2018-07-16T16:04:45.280Z,4.47
2018-07-16T16:07:13.465Z,3.93
2018-07-16T16:09:42.283Z,4.20
2018-07-16T16:12:11.513Z,4.40
2018-07-16T16:14:39.730Z,4.40
2018-07-16T16:17:09.232Z,4.43
2018-07-16T16:19:37.416Z,4.00
2018-07-16T16:22:06.486Z,4.03
2018-07-16T16:24:35.205Z,3.80
2018-07-16T16:27:04.137Z,4.00
2018-07-16T16:32:28.948Z,3.70
2018-07-16T16:35:01.897Z,3.90
2018-07-16T16:37:32.419Z,4.50
2018-07-16T16:40:03.734Z,4.70
2018-07-16T16:42:39.271Z,4.30
2018-07-16T16:45:07.844Z,3.80
2018-07-16T16:47:36.682Z,4.23
2018-07-16T16:50:08.152Z,4.30
2018-07-16T16:52:36.608Z,3.60
2018-07-16T16:55:11.466Z,4.10
2018-07-16T16:57:40.211Z,5.20
2018-07-16T17:00:08.529Z,4.10
2018-07-16T17:02:37.426Z,3.57
2018-07-16T17:05:05.938Z,3.70
2018-07-16T17:07:34.548Z,3.87
2018-07-16T17:10:03.563Z,3.97
2018-07-16T17:12:32.016Z,4.17
2018-07-16T17:15:00.806Z,3.97
2018-07-16T17:17:33.601Z,3.90
2018-07-16T17:20:02.625Z,5.10
2018-07-16T17:22:34.435Z,5.60
2018-07-16T17:25:20.785Z,6.30
2018-07-16T17:27:49.522Z,5.93
2018-07-16T17:30:18.266Z,6.00
2018-07-16T17:32:46.502Z,6.20
2018-07-16T17:35:15.115Z,6.33
2018-07-16T17:37:43.262Z,5.70
2018-07-16T17:40:11.816Z,5.27
2018-07-16T17:42:40.622Z,6.37
2018-07-16T17:45:09.520Z,7.07
2018-07-16T17:47:37.996Z,6.80
2018-07-16T17:50:06.817Z,6.40
2018-07-16T17:52:35.066Z,6.90
2018-07-16T17:55:03.322Z,6.03
2018-07-16T17:57:32.015Z,6.87
2018-07-16T18:00:00.861Z,6.70
2018-07-16T18:02:29.166Z,6.93
2018-07-16T18:04:57.370Z,7.10
2018-07-16T18:07:26.254Z,6.87
2018-07-16T18:09:54.645Z,6.90
2018-07-16T18:12:24.439Z,6.67
2018-07-16T18:14:52.979Z,7.17
2018-07-16T18:17:22.445Z,6.50
2018-07-16T18:19:51.632Z,7.03
2018-07-16T18:22:20.882Z,5.83
2018-07-16T18:24:49.482Z,6.60
2018-07-16T18:27:18.699Z,8.10
2018-07-16T18:29:47.086Z,6.93
2018-07-16T18:32:15.895Z,6.60
2018-07-16T18:34:45.585Z,8.00
2018-07-16T18:37:14.725Z,7.33
2018-07-16T18:42:17.546Z,7.70
2018-07-16T18:44:46.428Z,7.73
2018-07-16T18:47:14.990Z,6.93
2018-07-16T18:49:45.167Z,7.30
2018-07-16T18:52:14.123Z,7.87
2018-07-16T18:54:43.147Z,7.70
2018-07-16T18:57:11.535Z,6.80
2018-07-16T18:59:40.135Z,6.90
2018-07-16T19:02:09.219Z,7.50
2018-07-16T19:04:38.925Z,7.37
2018-07-16T19:07:07.693Z,8.13
2018-07-16T19:09:36.749Z,7.17
2018-07-16T19:12:05.606Z,7.43
2018-07-16T19:14:35.413Z,7.50
2018-07-16T19:17:04.700Z,7.97
2018-07-16T19:19:33.127Z,7.90
2018-07-16T19:22:02.481Z,7.17
2018-07-16T19:24:30.752Z,7.97
2018-07-16T19:27:00.293Z,7.70
2018-07-16T19:29:29.243Z,8.67
2018-07-16T19:31:57.623Z,8.20
2018-07-16T19:34:26.885Z,8.00
2018-07-16T19:36:55.594Z,7.70
2018-07-16T19:39:24.258Z,8.10
2018-07-16T19:41:53.480Z,8.53
2018-07-16T19:44:22.420Z,8.00
2018-07-16T19:46:52.686Z,7.43
2018-07-16T19:49:20.995Z,8.57
2018-07-16T19:51:49.380Z,7.83
2018-07-16T19:54:18.446Z,7.90
2018-07-16T19:56:47.041Z,7.50
2018-07-16T19:59:15.890Z,8.30
2018-07-16T20:01:46.079Z,9.20
2018-07-16T20:04:15.749Z,8.73
2018-07-16T20:06:45.069Z,8.90
2018-07-16T20:09:13.453Z,10.27
2018-07-16T20:11:43.405Z,9.70
2018-07-16T20:14:11.937Z,9.97
2018-07-16T20:16:42.230Z,9.80
2018-07-16T20:19:10.810Z,9.93
2018-07-16T20:21:39.418Z,9.63
2018-07-16T20:24:07.742Z,9.90
2018-07-16T20:26:36.284Z,9.90
2018-07-16T20:29:04.640Z,9.97
2018-07-16T20:31:33.257Z,10.27
2018-07-16T20:34:01.634Z,10.20
2018-07-16T20:36:30.373Z,10.60
2018-07-16T20:38:58.666Z,10.60
2018-07-16T20:41:26.889Z,10.10
2018-07-16T20:43:56.543Z,10.40
2018-07-16T20:46:25.120Z,10.33
2018-07-16T20:48:53.392Z,11.03
2018-07-16T20:51:21.987Z,10.40
2018-07-16T20:53:51.430Z,12.37
2018-07-16T20:56:19.969Z,11.17
2018-07-16T20:58:48.146Z,12.17
2018-07-16T21:01:16.794Z,10.93
2018-07-16T21:03:45.250Z,11.27
2018-07-16T21:06:13.761Z,12.40
2018-07-16T21:08:42.903Z,11.80
2018-07-16T21:11:11.712Z,11.20
2018-07-16T21:13:39.880Z,11.00
2018-07-16T21:16:08.242Z,11.07
2018-07-16T21:18:36.444Z,11.43
2018-07-16T21:21:04.595Z,10.60
2018-07-16T21:23:33.073Z,12.57
2018-07-16T21:26:01.616Z,12.23
2018-07-16T21:28:30.037Z,13.10
2018-07-16T21:31:00.999Z,11.50
2018-07-16T21:33:35.990Z,13.00
2018-07-16T21:36:04.175Z,12.47
2018-07-16T21:38:32.608Z,12.90
2018-07-16T21:41:03.882Z,12.60
2018-07-16T21:43:32.822Z,12.40
2018-07-16T21:46:01.083Z,12.90
2018-07-16T21:48:29.534Z,12.63
2018-07-16T21:50:58.089Z,12.43
2018-07-16T21:53:26.917Z,13.10
2018-07-16T21:55:55.458Z,10.70
2018-07-16T21:58:23.639Z,11.77
2018-07-16T22:00:52.235Z,13.10
2018-07-16T22:03:20.731Z,11.97
2018-07-16T22:05:48.860Z,12.40
2018-07-16T22:08:17.382Z,13.00
2018-07-16T22:10:45.866Z,13.40
2018-07-16T22:13:14.347Z,13.50
2018-07-16T22:15:42.484Z,14.20
2018-07-16T22:18:10.626Z,14.20
2018-07-16T22:20:38.746Z,15.57
2018-07-16T22:23:07.580Z,14.73
2018-07-16T22:25:36.036Z,14.33
2018-07-16T22:28:04.625Z,13.97
2018-07-16T22:30:32.761Z,14.23
2018-07-16T22:33:01.067Z,14.60
2018-07-16T22:35:29.214Z,13.47
2018-07-16T22:37:58.230Z,13.73
2018-07-16T22:40:28.073Z,13.20
2018-07-16T22:42:56.535Z,14.60
2018-07-16T22:45:24.767Z,14.73
2018-07-16T22:47:52.897Z,16.13
2018-07-16T22:50:21.455Z,15.50
2018-07-16T22:52:50.070Z,15.40
2018-07-16T22:58:15.657Z,16.83
2018-07-16T23:00:43.828Z,19.30
2018-07-16T23:03:12.427Z,17.53
2018-07-16T23:05:41.240Z,17.80
2018-07-16T23:08:09.874Z,16.53
2018-07-16T23:10:37.973Z,16.53
2018-07-16T23:13:06.662Z,14.63
2018-07-16T23:15:35.089Z,14.93
2018-07-16T23:18:03.527Z,15.60
2018-07-16T23:20:38.466Z,16.23
2018-07-16T23:23:07.208Z,17.13
2018-07-16T23:25:35.659Z,16.60
2018-07-16T23:28:04.154Z,16.10
2018-07-16T23:30:32.275Z,17.07
2018-07-16T23:33:00.469Z,17.40
2018-07-16T23:35:28.722Z,17.33
2018-07-16T23:37:57.280Z,17.70
2018-07-16T23:40:25.741Z,16.53
2018-07-16T23:42:54.255Z,19.43
2018-07-16T23:45:22.458Z,19.07
2018-07-16T23:47:51.013Z,19.87
2018-07-16T23:50:19.632Z,17.53
2018-07-16T23:52:48.069Z,19.80
2018-07-16T23:55:16.783Z,18.03
2018-07-16T23:57:45.591Z,17.93
